Time;durP1;ratioP1;P1;durP2;ratioP2;P2;SDS_P1;SDS_P2;PMS_P1;PMS_P2;Temp;Humidity;BMP_temperature;BMP_pressure;BME280_temperature;BME280_humidity;BME280_pressure;Samples;Min_cycle;Max_cycle;Signal;HPM_P1;HPM_P2
2021/12/21 00:04:40;;;;;;;7.93;4.13;;;;;;;20.69;nan;100770.44;20416690;28;100135;-57
2021/12/21 00:14:59;;;;;;;6.97;4.35;;;;;;;20.62;nan;100784.03;20413270;27;99161;-57
2021/12/21 00:24:59;;;;;;;5.80;3.80;;;;;;;20.62;nan;100791.09;20411872;28;99387;-57
2021/12/21 00:35:00;;;;;;;5.22;3.40;;;;;;;20.59;nan;100815.81;20413223;28;101974;-57
2021/12/21 00:45:00;;;;;;;6.03;3.70;;;;;;;20.55;nan;100845.06;20410965;28;101211;-57
2021/12/21 00:55:01;;;;;;;3.75;2.97;;;;;;;20.50;nan;100855.06;20418769;27;98621;-56
2021/12/21 01:05:04;;;;;;;4.65;3.60;;;;;;;20.49;nan;100883.16;20409096;28;100421;-56
2021/12/21 01:25:43;;;;;;;5.13;3.20;;;;;;;20.42;nan;100906.41;20426205;28;97995;-57
2021/12/21 01:35:48;;;;;;;3.72;2.63;;;;;;;20.39;nan;100906.59;20397649;28;101819;-56
2021/12/21 01:56:09;;;;;;;3.67;2.60;;;;;;;20.31;nan;100925.50;20429778;28;103625;-57
2021/12/21 02:06:11;;;;;;;3.78;2.72;;;;;;;20.27;nan;100918.75;20412654;28;103645;-56
2021/12/21 02:16:12;;;;;;;2.80;2.30;;;;;;;20.27;nan;100917.91;20419467;28;101391;-57
2021/12/21 02:36:32;;;;;;;2.92;2.05;;;;;;;20.17;nan;100930.81;20437650;28;99040;-56
2021/12/21 02:46:34;;;;;;;3.28;2.17;;;;;;;20.16;nan;100926.50;20415099;28;100645;-56
2021/12/21 02:56:35;;;;;;;2.20;2.00;;;;;;;20.12;nan;100953.94;20425624;28;97840;-56
2021/12/21 03:16:46;;;;;;;3.20;2.10;;;;;;;20.08;nan;100961.19;20422165;28;98488;-56
2021/12/21 03:26:46;;;;;;;2.42;1.75;;;;;;;20.09;nan;100969.88;20430643;27;97595;-55
2021/12/21 03:36:47;;;;;;;1.75;1.60;;;;;;;20.04;nan;100971.97;20446717;28;102009;-56
2021/12/21 03:46:52;;;;;;;2.25;1.60;;;;;;;20.04;nan;100982.50;20427137;28;98690;-55
2021/12/21 03:56:53;;;;;;;2.00;1.65;;;;;;;20.00;nan;100990.56;20429644;28;102273;-56
2021/12/21 04:06:54;;;;;;;1.95;1.40;;;;;;;20.01;nan;100996.69;20425940;28;99167;-56
2021/12/21 04:16:57;;;;;;;2.08;1.60;;;;;;;20.00;nan;100994.97;20416077;28;99243;-57
2021/12/21 04:26:57;;;;;;;1.60;1.40;;;;;;;20.02;nan;101019.41;20407196;27;104093;-56
2021/12/21 04:36:59;;;;;;;1.92;1.50;;;;;;;19.98;nan;101024.00;20407393;28;98862;-57
2021/12/21 04:47:00;;;;;;;2.00;1.30;;;;;;;19.99;nan;101027.47;20419560;28;101817;-56
2021/12/21 04:57:01;;;;;;;1.67;1.23;;;;;;;19.96;nan;101031.13;20422454;28;102210;-57
2021/12/21 05:07:03;;;;;;;3.20;1.40;;;;;;;19.96;nan;101035.56;20432299;28;102070;-57
2021/12/21 05:17:06;;;;;;;2.83;1.40;;;;;;;20.12;nan;101045.97;20421371;28;101795;-56
2021/12/21 05:27:09;;;;;;;3.13;1.45;;;;;;;20.29;nan;101066.78;20417824;28;101516;-56
2021/12/21 05:37:10;;;;;;;3.28;1.52;;;;;;;20.46;nan;101073.59;20414417;28;100337;-56
2021/12/21 05:47:11;;;;;;;3.03;1.38;;;;;;;20.58;nan;101076.38;20414441;28;99517;-57
2021/12/21 05:57:12;;;;;;;4.13;1.05;;;;;;;20.62;nan;101088.41;20418694;28;99745;-57
2021/12/21 06:07:14;;;;;;;6.38;1.38;;;;;;;20.70;nan;101091.41;20424891;28;105816;-56
2021/12/21 06:27:34;;;;;;;5.93;1.40;;;;;;;20.61;nan;101123.56;20488080;28;100625;-57
2021/12/21 06:37:35;;;;;;;4.97;1.25;;;;;;;20.71;nan;101121.19;20417038;28;99042;-57
2021/12/21 06:57:55;;;;;;;4.18;1.30;;;;;;;20.75;nan;101144.63;20435204;28;98534;-58
2021/12/21 07:07:56;;;;;;;2.28;1.10;;;;;;;20.82;nan;101154.75;20431214;28;98744;-58
2021/12/21 07:18:11;;;;;;;3.97;1.40;;;;;;;20.87;nan;101155.31;20432525;28;97802;-58
2021/12/21 07:28:11;;;;;;;4.00;2.05;;;;;;;20.90;nan;101163.84;20456820;27;102648;-58
2021/12/21 07:38:12;;;;;;;3.17;2.65;;;;;;;20.94;nan;101180.28;20431065;27;98825;-55
2021/12/21 07:48:13;;;;;;;3.50;2.40;;;;;;;20.99;nan;101172.94;20429970;28;97725;-56
2021/12/21 07:58:14;;;;;;;4.85;3.33;;;;;;;21.04;nan;101172.66;20433039;28;101918;-55
2021/12/21 08:08:19;;;;;;;5.57;4.15;;;;;;;21.09;nan;101181.97;20480146;28;101564;-56
2021/12/21 08:18:20;;;;;;;6.35;4.55;;;;;;;21.12;nan;101186.19;20432727;28;103353;-57
2021/12/21 08:28:21;;;;;;;9.70;7.22;;;;;;;21.15;nan;101190.41;20436252;28;98669;-55
2021/12/21 08:38:25;;;;;;;9.68;5.50;;;;;;;21.17;nan;101194.63;20462234;28;101820;-58
2021/12/21 08:48:27;;;;;;;13.45;8.77;;;;;;;21.23;nan;101207.38;20422155;28;101901;-57
2021/12/21 08:58:28;;;;;;;12.93;7.90;;;;;;;21.27;nan;101218.56;20425654;28;100641;-57
2021/12/21 09:08:29;;;;;;;11.82;6.93;;;;;;;21.32;nan;101220.91;20422945;28;99277;-57
2021/12/21 09:18:33;;;;;;;11.65;7.28;;;;;;;21.38;nan;101218.72;20422929;28;98259;-57
2021/12/21 09:28:34;;;;;;;12.50;8.90;;;;;;;21.44;nan;101210.41;20425319;28;101637;-58
2021/12/21 09:38:35;;;;;;;11.95;8.43;;;;;;;21.51;nan;101215.31;20418687;28;97869;-58
2021/12/21 09:48:37;;;;;;;13.32;8.10;;;;;;;21.54;nan;101210.63;20422292;27;100660;-58
2021/12/21 09:58:42;;;;;;;10.37;7.90;;;;;;;21.63;nan;101200.47;20432807;27;101078;-57
2021/12/21 10:08:43;;;;;;;10.13;8.63;;;;;;;21.72;nan;101190.16;20417754;28;97928;-58
2021/12/21 10:18:45;;;;;;;12.35;9.38;;;;;;;21.78;nan;101186.28;20415524;28;100592;-57
2021/12/21 10:28:48;;;;;;;14.27;10.10;;;;;;;21.85;nan;101179.66;20432179;28;99227;-58
2021/12/21 10:38:55;;;;;;;13.75;10.25;;;;;;;21.92;nan;101164.25;20424900;28;98898;-58
2021/12/21 10:49:09;;;;;;;16.20;12.15;;;;;;;21.99;nan;101149.69;20438936;28;98417;-58
2021/12/21 10:59:11;;;;;;;16.55;12.93;;;;;;;22.05;nan;101138.72;20434171;28;98099;-57
2021/12/21 11:09:11;;;;;;;19.13;14.00;;;;;;;22.13;nan;101130.28;20437470;28;102373;-57
2021/12/21 11:19:16;;;;;;;20.33;14.98;;;;;;;22.21;nan;101122.66;20517817;28;98148;-58
2021/12/21 11:29:18;;;;;;;18.65;14.85;;;;;;;22.27;nan;101108.19;20441629;28;99761;-58
2021/12/21 11:39:21;;;;;;;;;;;;;;;22.34;nan;101106.81;20441567;28;98560;-58
2021/12/21 11:49:47;;;;;;;25.60;15.07;;;;;;;22.43;nan;101107.97;20425611;28;102012;-58
2021/12/21 11:59:49;;;;;;;23.10;15.43;;;;;;;22.53;nan;101116.09;20421294;28;100410;-58
2021/12/21 12:10:05;;;;;;;23.13;15.33;;;;;;;22.57;nan;101100.88;20444938;28;101449;-57
2021/12/21 12:20:07;;;;;;;21.23;15.05;;;;;;;22.56;nan;101102.69;20418060;28;98698;-58
2021/12/21 12:30:11;;;;;;;18.67;14.40;;;;;;;22.50;nan;101093.41;20439950;28;98495;-58
2021/12/21 12:40:14;;;;;;;19.02;14.18;;;;;;;22.53;nan;101094.97;20448686;28;98526;-59
2021/12/21 12:50:28;;;;;;;18.85;13.57;;;;;;;22.53;nan;101087.91;20427427;28;97733;-57
2021/12/21 13:00:31;;;;;;;16.30;12.43;;;;;;;22.52;nan;101098.56;20426518;28;102825;-57
2021/12/21 13:10:39;;;;;;;18.23;12.05;;;;;;;22.51;nan;101097.72;20428098;28;97727;-58
2021/12/21 13:20:42;;;;;;;15.32;12.25;;;;;;;22.50;nan;101103.97;20421876;28;103310;-57
2021/12/21 13:30:47;;;;;;;18.80;11.45;;;;;;;22.46;nan;101107.78;20430182;28;98755;-57
2021/12/21 13:41:09;;;;;;;15.63;11.30;;;;;;;22.33;nan;101093.75;20455792;28;98299;-57
2021/12/21 13:51:13;;;;;;;13.83;10.77;;;;;;;22.21;nan;101090.16;20413106;28;99488;-58
2021/12/21 14:01:21;;;;;;;15.00;9.65;;;;;;;22.17;nan;101092.19;20442553;28;99931;-58
2021/12/21 14:11:30;;;;;;;13.73;9.70;;;;;;;22.04;nan;101086.91;20443656;28;98622;-58
2021/12/21 14:21:36;;;;;;;16.13;9.05;;;;;;;21.91;nan;101104.56;20445064;28;98059;-58
2021/12/21 14:31:48;;;;;;;14.63;8.80;;;;;;;21.85;nan;101103.19;20437656;28;103706;-59
2021/12/21 14:41:55;;;;;;;16.20;8.20;;;;;;;21.81;nan;101117.50;20444222;28;98055;-58
2021/12/21 14:52:18;;;;;;;11.60;7.82;;;;;;;21.74;nan;101109.19;20437094;28;99507;-57
2021/12/21 15:03:02;;;;;;;10.55;7.57;;;;;;;21.69;nan;101124.50;20449803;28;98388;-57
2021/12/21 15:12:45;;;;;;;11.43;7.32;;;;;;;21.64;nan;101134.50;20426883;28;102061;-57
2021/12/21 15:22:46;;;;;;;12.20;6.90;;;;;;;21.61;nan;101133.88;20425825;28;98964;-57
2021/12/21 15:32:48;;;;;;;9.23;6.50;;;;;;;21.59;nan;101137.44;20456119;27;98487;-57
2021/12/21 15:42:50;;;;;;;8.82;6.38;;;;;;;21.55;nan;101143.00;20445211;28;99156;-56
2021/12/21 15:52:51;;;;;;;7.20;5.93;;;;;;;21.48;nan;101146.97;20439090;28;98317;-56
2021/12/21 16:02:53;;;;;;;10.07;5.90;;;;;;;21.42;nan;101151.72;20440379;28;101738;-56
2021/12/21 16:12:53;;;;;;;8.90;5.65;;;;;;;21.40;nan;101144.88;20460079;28;98814;-56
2021/12/21 16:22:55;;;;;;;9.63;5.53;;;;;;;21.36;nan;101143.34;20468686;28;101814;-57
2021/12/21 16:32:59;;;;;;;9.20;4.80;;;;;;;21.32;nan;101145.34;20439458;28;97845;-57
2021/12/21 16:43:00;;;;;;;7.07;4.28;;;;;;;21.33;nan;101144.41;20421875;28;97570;-57
2021/12/21 16:53:02;;;;;;;5.25;4.05;;;;;;;21.30;nan;101146.41;20416755;28;99683;-57
2021/12/21 17:03:03;;;;;;;5.90;4.00;;;;;;;21.28;nan;101147.34;20423899;28;101175;-57
2021/12/21 17:13:05;;;;;;;5.38;4.20;;;;;;;21.26;nan;101149.25;20422591;28;98560;-56
2021/12/21 17:23:06;;;;;;;5.55;3.70;;;;;;;21.27;nan;101166.72;20422802;28;99384;-57
2021/12/21 17:33:11;;;;;;;7.53;3.70;;;;;;;21.25;nan;101166.00;20421347;28;100577;-56
2021/12/21 17:43:12;;;;;;;4.00;3.17;;;;;;;21.23;nan;101173.16;20424542;28;97481;-56
2021/12/21 17:53:14;;;;;;;10.40;4.63;;;;;;;21.26;nan;101164.19;20401779;28;101301;-57
2021/12/21 18:03:15;;;;;;;8.77;4.03;;;;;;;21.34;nan;101179.53;20388574;28;104022;-56
2021/12/21 18:13:15;;;;;;;10.52;4.28;;;;;;;21.37;nan;101189.84;20405549;28;97705;-58
2021/12/21 18:23:18;;;;;;;8.38;4.30;;;;;;;21.42;nan;101185.97;20414838;28;100034;-58
2021/12/21 18:33:18;;;;;;;6.70;4.57;;;;;;;21.42;nan;101196.50;20409636;28;98193;-56
2021/12/21 18:43:19;;;;;;;11.67;5.13;;;;;;;21.44;nan;101185.84;20391547;28;102300;-56
2021/12/21 18:53:19;;;;;;;9.40;4.88;;;;;;;21.47;nan;101182.19;20433235;28;101476;-57
2021/12/21 19:03:25;;;;;;;104.75;35.17;;;;;;;21.50;nan;101196.00;20438908;28;102066;-57
2021/12/21 19:13:27;;;;;;;94.35;33.22;;;;;;;21.45;nan;101187.56;20426075;28;100175;-55
2021/12/21 19:23:29;;;;;;;75.75;29.48;;;;;;;21.50;nan;101195.16;20408590;28;102122;-56
2021/12/21 19:33:30;;;;;;;70.75;25.48;;;;;;;21.55;nan;101195.69;20420376;28;102790;-57
2021/12/21 19:43:33;;;;;;;56.78;22.73;;;;;;;21.61;nan;101211.13;20401323;28;102704;-57
2021/12/21 19:53:34;;;;;;;59.05;21.02;;;;;;;21.63;nan;101206.59;20410680;28;102089;-55
2021/12/21 20:03:38;;;;;;;46.25;18.73;;;;;;;21.63;nan;101217.16;20403397;28;98895;-56
2021/12/21 20:13:38;;;;;;;50.08;18.33;;;;;;;21.64;nan;101215.34;20404326;28;99585;-56
2021/12/21 20:23:39;;;;;;;44.63;15.73;;;;;;;21.65;nan;101217.88;20442207;28;98200;-56
2021/12/21 20:33:40;;;;;;;41.05;15.55;;;;;;;21.62;nan;101226.00;20388735;28;101580;-57
2021/12/21 20:43:41;;;;;;;34.72;13.65;;;;;;;21.59;nan;101226.19;20392266;28;99133;-58
2021/12/21 20:53:41;;;;;;;31.52;13.93;;;;;;;21.58;nan;101235.91;20375731;28;102463;-56
2021/12/21 21:03:43;;;;;;;29.40;12.30;;;;;;;21.52;nan;101236.28;20403600;28;100616;-57
2021/12/21 21:13:46;;;;;;;30.88;12.10;;;;;;;21.47;nan;101230.47;20414349;28;101615;-57
2021/12/21 21:23:47;;;;;;;;;;;;;;;21.36;nan;101230.28;20415577;28;99259;-57
2021/12/21 21:33:48;;;;;;;28.02;10.90;;;;;;;21.16;nan;101237.69;20399407;28;98252;-57
2021/12/21 21:43:49;;;;;;;22.63;10.10;;;;;;;20.95;nan;101239.91;20428177;28;102693;-57
2021/12/21 21:53:51;;;;;;;19.37;9.30;;;;;;;21.01;nan;101254.50;20404048;28;101874;-56
2021/12/21 22:03:52;;;;;;;17.70;8.45;;;;;;;20.97;nan;101256.47;20398564;28;98335;-56
2021/12/21 22:13:53;;;;;;;15.32;7.78;;;;;;;20.94;nan;101256.66;20422267;28;101147;-55
2021/12/21 22:23:54;;;;;;;16.20;7.85;;;;;;;20.92;nan;101263.78;20395882;28;98915;-56
2021/12/21 22:33:56;;;;;;;14.45;7.53;;;;;;;20.86;nan;101264.16;20441829;28;102278;-56
2021/12/21 22:43:58;;;;;;;15.13;7.40;;;;;;;20.79;nan;101267.19;20400089;28;99106;-57
2021/12/21 22:54:01;;;;;;;15.25;7.03;;;;;;;20.76;nan;101275.28;20398476;28;101291;-56
2021/12/21 23:04:02;;;;;;;15.07;7.07;;;;;;;20.78;nan;101283.91;20396721;28;100841;-56
2021/12/21 23:14:03;;;;;;;14.45;7.28;;;;;;;20.73;nan;101298.31;20396048;28;101820;-57
2021/12/21 23:24:05;;;;;;;14.07;6.70;;;;;;;20.72;nan;101307.16;20394721;28;100941;-56
2021/12/21 23:34:07;;;;;;;11.45;7.05;;;;;;;20.68;nan;101298.56;20395540;28;99108;-57
2021/12/21 23:44:07;;;;;;;12.45;6.43;;;;;;;20.65;nan;101301.34;20449231;28;97923;-57
2021/12/21 23:54:12;;;;;;;12.30;5.72;;;;;;;20.61;nan;101313.84;20396043;28;103184;-58
